createdAt,value
2023-12-23T00:02:36.753Z,5.63
2023-12-23T00:07:38.273Z,5.53
2023-12-23T00:12:39.906Z,4.78
2023-12-23T00:17:41.748Z,8.05
2023-12-23T00:22:43.467Z,7.68
2023-12-23T00:27:45.020Z,16.88
2023-12-23T00:32:48.602Z,11.18
2023-12-23T00:37:50.397Z,18.40
2023-12-23T00:42:52.055Z,15.57
2023-12-23T00:47:54.428Z,11.82
2023-12-23T00:52:56.180Z,9.32
2023-12-23T00:57:57.987Z,7.95
2023-12-23T01:02:59.480Z,12.63
2023-12-23T01:08:01.118Z,16.88
2023-12-23T01:13:02.694Z,10.57
2023-12-23T01:18:04.390Z,8.82
2023-12-23T01:23:07.588Z,4.18
2023-12-23T01:28:09.444Z,10.07
2023-12-23T01:33:11.431Z,13.90
2023-12-23T01:38:13.042Z,9.98
2023-12-23T01:43:14.584Z,13.10
2023-12-23T01:48:17.204Z,13.48
2023-12-23T01:53:18.987Z,13.23
2023-12-23T01:58:21.407Z,17.60
2023-12-23T02:03:23.062Z,11.82
2023-12-23T02:08:24.608Z,17.10
2023-12-23T02:13:26.802Z,12.38
2023-12-23T02:18:29.127Z,8.80
2023-12-23T02:23:30.830Z,13.90
2023-12-23T02:28:32.557Z,15.38
2023-12-23T02:33:34.388Z,15.73
2023-12-23T02:38:38.324Z,16.05
2023-12-23T02:43:40.186Z,10.40
2023-12-23T02:48:42.102Z,16.75
2023-12-23T02:53:43.945Z,11.43
2023-12-23T02:58:45.500Z,11.70
2023-12-23T03:03:47.063Z,16.63
2023-12-23T03:08:48.830Z,14.88
2023-12-23T03:13:53.204Z,19.38
2023-12-23T03:18:54.792Z,9.98
2023-12-23T03:23:56.381Z,16.50
2023-12-23T03:28:59.264Z,12.07
2023-12-23T03:34:01.405Z,13.35
2023-12-23T03:39:03.159Z,15.38
2023-12-23T03:44:05.102Z,13.63
2023-12-23T03:49:06.735Z,11.95
2023-12-23T03:54:08.266Z,10.43
2023-12-23T03:59:09.822Z,12.40
2023-12-23T04:04:11.487Z,8.68
2023-12-23T04:09:12.982Z,9.05
2023-12-23T04:14:14.559Z,16.75
2023-12-23T04:19:16.204Z,12.20
2023-12-23T04:24:21.097Z,5.97
2023-12-23T04:29:22.646Z,10.77
2023-12-23T04:34:25.321Z,10.80
2023-12-23T04:39:29.043Z,7.78
2023-12-23T04:44:30.774Z,7.15
2023-12-23T04:49:34.653Z,11.50
2023-12-23T04:54:36.234Z,9.52
2023-12-23T04:59:37.767Z,11.50
2023-12-23T05:04:40.720Z,5.78
2023-12-23T05:09:44.055Z,10.13
2023-12-23T05:14:46.566Z,6.10
2023-12-23T05:19:49.437Z,11.65
2023-12-23T05:24:51.024Z,3.30
2023-12-23T05:29:52.598Z,12.35
2023-12-23T05:34:54.138Z,12.05
2023-12-23T05:39:55.668Z,9.93
2023-12-23T05:44:57.164Z,8.63
2023-12-23T05:49:58.763Z,4.97
2023-12-23T05:55:00.354Z,6.28
2023-12-23T06:00:01.897Z,7.70
2023-12-23T06:05:05.151Z,8.95
2023-12-23T06:10:07.371Z,9.85
2023-12-23T06:15:09.284Z,6.07
2023-12-23T06:20:13.851Z,4.68
2023-12-23T06:25:15.386Z,13.50
2023-12-23T06:30:16.981Z,3.00
2023-12-23T06:35:19.773Z,8.63
2023-12-23T06:40:21.425Z,9.05
2023-12-23T06:45:22.935Z,8.43
2023-12-23T06:50:24.511Z,3.22
2023-12-23T06:55:26.068Z,6.80
2023-12-23T07:00:27.648Z,7.63
2023-12-23T07:05:29.202Z,5.82
2023-12-23T07:10:30.722Z,5.97
2023-12-23T07:15:32.216Z,3.15
2023-12-23T07:20:33.707Z,3.28
2023-12-23T07:25:35.213Z,7.05
2023-12-23T07:30:45.475Z,8.80
2023-12-23T07:35:47.104Z,7.07
2023-12-23T07:40:48.622Z,5.38
2023-12-23T07:45:50.126Z,3.15
2023-12-23T07:50:51.623Z,2.15
2023-12-23T07:55:53.177Z,5.97
2023-12-23T08:00:55.250Z,5.28
2023-12-23T08:05:56.791Z,9.52
2023-12-23T08:10:58.570Z,6.03
2023-12-23T08:16:00.296Z,5.38
2023-12-23T08:21:04.419Z,6.50
2023-12-23T08:26:06.034Z,7.60
2023-12-23T08:31:08.123Z,6.65
2023-12-23T08:36:09.697Z,4.10
2023-12-23T08:41:11.206Z,2.63
2023-12-23T08:46:16.693Z,2.55
2023-12-23T08:51:18.180Z,3.83
2023-12-23T08:56:19.779Z,3.60
2023-12-23T09:01:21.944Z,2.20
2023-12-23T09:06:23.453Z,6.03
2023-12-23T09:11:25.200Z,4.13
2023-12-23T09:16:26.735Z,1.85
2023-12-23T09:21:28.235Z,5.00
2023-12-23T09:26:29.765Z,7.70
2023-12-23T09:31:31.678Z,2.38
2023-12-23T09:36:33.203Z,3.53
2023-12-23T09:41:34.704Z,4.53
2023-12-23T09:46:39.153Z,10.43
2023-12-23T09:51:40.642Z,3.22
2023-12-23T09:56:42.139Z,5.45
2023-12-23T10:01:43.707Z,4.93
2023-12-23T10:06:45.283Z,7.82
2023-12-23T10:11:46.805Z,3.38
2023-12-23T10:16:49.648Z,4.45
2023-12-23T10:21:51.598Z,8.18
2023-12-23T10:26:53.107Z,4.40
2023-12-23T10:31:56.180Z,7.65
2023-12-23T10:36:57.685Z,2.15
2023-12-23T10:42:04.230Z,6.80
2023-12-23T10:47:05.788Z,4.35
2023-12-23T10:52:07.748Z,3.70
2023-12-23T10:57:09.391Z,5.35
2023-12-23T11:02:16.885Z,4.88
2023-12-23T11:07:20.808Z,4.28
2023-12-23T11:12:22.329Z,7.50
2023-12-23T11:17:28.112Z,12.60
2023-12-23T11:22:30.313Z,9.18
2023-12-23T11:27:37.818Z,7.88
2023-12-23T11:32:41.299Z,8.77
2023-12-23T11:37:56.975Z,14.32
2023-12-23T11:42:58.595Z,10.77
2023-12-23T11:48:00.482Z,19.08
2023-12-23T11:53:02.957Z,11.07
2023-12-23T11:58:04.638Z,10.27
2023-12-23T12:03:06.408Z,11.48
2023-12-23T12:08:08.023Z,6.63
2023-12-23T12:13:09.631Z,8.65
2023-12-23T12:18:12.561Z,5.13
2023-12-23T12:23:14.415Z,8.57
2023-12-23T12:28:16.291Z,2.20
2023-12-23T12:33:17.841Z,8.00
2023-12-23T12:38:23.679Z,6.88
2023-12-23T12:43:30.883Z,5.93
2023-12-23T12:48:32.526Z,3.15
2023-12-23T12:53:34.372Z,1.35
2023-12-23T12:58:36.003Z,2.60
2023-12-23T13:03:38.610Z,4.15
2023-12-23T13:08:40.291Z,2.38
2023-12-23T13:13:41.848Z,5.88
2023-12-23T13:18:52.827Z,3.72
2023-12-23T13:23:58.708Z,5.97
2023-12-23T13:29:00.491Z,3.10
2023-12-23T13:34:02.101Z,6.63
2023-12-23T13:39:07.827Z,2.05
2023-12-23T13:44:09.406Z,4.55
2023-12-23T13:49:11.093Z,7.18
2023-12-23T13:54:12.673Z,3.33
2023-12-23T13:59:14.208Z,5.22
2023-12-23T14:04:15.741Z,5.45
2023-12-23T14:09:19.590Z,6.15
2023-12-23T14:14:21.224Z,1.63
2023-12-23T14:19:22.890Z,5.70
2023-12-23T14:24:24.485Z,6.35
2023-12-23T14:29:26.146Z,6.28
2023-12-23T14:34:27.728Z,3.08
2023-12-23T14:39:29.250Z,14.50
2023-12-23T14:44:30.896Z,3.28
2023-12-23T14:49:32.429Z,4.00
2023-12-23T14:54:34.206Z,3.15
2023-12-23T14:59:36.083Z,5.50
2023-12-23T15:04:38.218Z,3.45
2023-12-23T15:09:39.796Z,1.27
2023-12-23T15:14:41.281Z,4.88
2023-12-23T15:19:42.777Z,2.67
2023-12-23T15:24:44.291Z,1.60
2023-12-23T15:29:45.802Z,4.60
2023-12-23T15:34:47.317Z,3.63
2023-12-23T15:39:48.837Z,3.25
2023-12-23T15:44:50.408Z,4.18
2023-12-23T15:49:52.162Z,14.88
2023-12-23T15:54:53.793Z,0.80
2023-12-23T15:59:55.299Z,6.03
2023-12-23T16:04:56.916Z,2.80
2023-12-23T16:09:58.570Z,1.95
2023-12-23T16:15:01.166Z,3.78
2023-12-23T16:20:04.086Z,1.65
2023-12-23T16:25:06.057Z,0.30
2023-12-23T16:30:08.179Z,5.72
2023-12-23T16:35:10.805Z,4.82
2023-12-23T16:40:12.579Z,2.58
2023-12-23T16:45:16.684Z,3.60
2023-12-23T16:50:18.276Z,4.32
2023-12-23T16:55:20.202Z,6.53
2023-12-23T17:00:22.028Z,2.42
2023-12-23T17:05:23.567Z,0.93
2023-12-23T17:10:26.234Z,2.22
2023-12-23T17:15:30.536Z,5.88
2023-12-23T17:20:32.950Z,2.50
2023-12-23T17:25:34.599Z,2.10
2023-12-23T17:30:36.172Z,1.45
2023-12-23T17:35:40.488Z,0.38
2023-12-23T17:40:45.477Z,2.70
2023-12-23T17:45:47.445Z,2.42
2023-12-23T17:50:49.142Z,21.60
2023-12-23T17:55:51.069Z,3.03
2023-12-23T18:00:52.776Z,2.88
2023-12-23T18:05:54.307Z,3.78
2023-12-23T18:10:55.846Z,1.45
2023-12-23T18:15:57.400Z,1.48
2023-12-23T18:20:58.917Z,2.70
2023-12-23T18:26:00.470Z,1.52
2023-12-23T18:31:02.887Z,3.67
2023-12-23T18:36:04.590Z,2.88
2023-12-23T18:41:06.592Z,3.85
2023-12-23T18:46:08.302Z,7.82
2023-12-23T18:51:13.007Z,3.53
2023-12-23T18:56:17.049Z,13.35
2023-12-23T19:01:19.005Z,2.70
2023-12-23T19:06:20.530Z,2.17
2023-12-23T19:11:22.339Z,3.72
2023-12-23T19:16:25.327Z,5.93
2023-12-23T19:21:27.040Z,6.47
2023-12-23T19:26:28.939Z,3.25
2023-12-23T19:31:33.101Z,3.28
2023-12-23T19:36:35.053Z,1.20
2023-12-23T19:41:36.626Z,1.98
2023-12-23T19:46:38.151Z,1.00
2023-12-23T19:51:42.165Z,3.35
2023-12-23T19:56:43.727Z,7.57
2023-12-23T20:01:48.405Z,3.92
2023-12-23T20:06:49.988Z,3.30
2023-12-23T20:11:52.675Z,5.55
2023-12-23T20:16:54.216Z,4.40
2023-12-23T20:21:55.913Z,5.93
2023-12-23T20:26:57.476Z,9.60
2023-12-23T20:31:59.025Z,7.75
2023-12-23T20:37:05.935Z,3.10
2023-12-23T20:42:09.088Z,3.38
2023-12-23T20:52:12.041Z,2.78
2023-12-23T20:57:13.569Z,1.38
2023-12-23T21:02:15.130Z,3.33
2023-12-23T21:07:17.369Z,3.30
2023-12-23T21:12:18.921Z,1.90
2023-12-23T21:17:20.829Z,1.52
2023-12-23T21:22:23.437Z,1.00
2023-12-23T21:27:25.067Z,1.10
2023-12-23T21:32:26.747Z,5.75
2023-12-23T21:37:28.320Z,2.28
2023-12-23T21:42:29.867Z,2.90
2023-12-23T21:47:31.473Z,2.30
2023-12-23T21:52:33.096Z,1.90
2023-12-23T21:57:34.659Z,6.13
2023-12-23T22:02:38.465Z,2.65
2023-12-23T22:07:42.684Z,6.80
2023-12-23T22:12:44.242Z,17.67
2023-12-23T22:17:45.893Z,7.20
2023-12-23T22:22:47.430Z,1.17
2023-12-23T22:27:49.370Z,11.80
2023-12-23T22:32:51.664Z,5.25
2023-12-23T22:37:53.406Z,4.07
2023-12-23T22:42:54.990Z,2.85
2023-12-23T22:47:56.564Z,3.17
2023-12-23T22:52:58.192Z,5.80
2023-12-23T22:57:59.883Z,7.88
2023-12-23T23:03:02.488Z,11.20
2023-12-23T23:08:05.357Z,9.27
2023-12-23T23:13:07.869Z,10.15
2023-12-23T23:18:09.545Z,10.23
2023-12-23T23:23:11.190Z,13.35
2023-12-23T23:28:12.727Z,12.65
2023-12-23T23:33:14.416Z,14.20
2023-12-23T23:38:16.039Z,20.92
2023-12-23T23:43:18.009Z,20.48
2023-12-23T23:48:19.574Z,16.65
2023-12-23T23:53:22.164Z,23.13
2023-12-23T23:58:23.695Z,18.17
